Terminal Aerodrome Forecast
Issued by NWS

Home | Current Version | Previous Version | Text Only | Print | Product List | Glossary On
Versions: 1 2 3 4 5 6 7 8 9 10 11 12 13 14
000
FTUS41 KPBZ 200500
TAFBVI
TAF
KBVI 200531Z 2006/2106 32012KT 3SM -SHRA BKN025 OVC040
     FM200800 31006KT 6SM BR VCSH BKN040
     FM201200 21005KT P6SM SCT030 BKN080
     FM201800 22010KT P6SM VCTS BKN040CB
     FM210100 23004KT P6SM SCT040
      AMD NOT SKED=

USA.gov is the U.S. government's official web portal to all federal, state and local government web resources and services.